createdAt,value
2017-11-21T00:01:57.845Z,8.97
2017-11-21T00:04:25.918Z,9.13
2017-11-21T00:06:53.998Z,9.17
2017-11-21T00:09:22.068Z,8.27
2017-11-21T00:11:50.153Z,10.37
2017-11-21T00:14:18.993Z,10.17
2017-11-21T00:16:47.075Z,10.00
2017-11-21T00:19:15.151Z,9.83
2017-11-21T00:21:43.241Z,10.17
2017-11-21T00:24:11.313Z,8.10
2017-11-21T00:26:40.168Z,9.40
2017-11-21T00:29:08.253Z,8.40
2017-11-21T00:31:36.330Z,8.50
2017-11-21T00:34:04.401Z,7.77
2017-11-21T00:36:32.476Z,8.50
2017-11-21T00:39:00.545Z,8.57
2017-11-21T00:41:28.627Z,8.10
2017-11-21T00:43:57.468Z,9.03
2017-11-21T00:46:25.543Z,7.67
2017-11-21T00:48:53.607Z,8.43
2017-11-21T00:51:21.686Z,6.33
2017-11-21T00:53:49.784Z,7.80
2017-11-21T00:56:19.368Z,6.50
2017-11-21T00:58:47.499Z,7.70
2017-11-21T01:01:15.628Z,8.00
2017-11-21T01:03:43.773Z,7.93
2017-11-21T01:06:11.855Z,7.83
2017-11-21T01:08:39.918Z,7.87
2017-11-21T01:11:07.996Z,10.30
2017-11-21T01:13:36.105Z,8.70
2017-11-21T01:16:04.943Z,8.33
2017-11-21T01:18:33.132Z,9.03
2017-11-21T01:21:01.284Z,7.93
2017-11-21T01:23:29.368Z,7.40
2017-11-21T01:25:57.434Z,7.80
2017-11-21T01:28:25.644Z,7.13
2017-11-21T01:30:54.459Z,6.83
2017-11-21T01:33:22.593Z,8.00
2017-11-21T01:35:52.165Z,7.27
2017-11-21T01:38:20.250Z,7.97
2017-11-21T01:40:48.335Z,7.23
2017-11-21T01:43:16.413Z,6.97
2017-11-21T01:45:45.270Z,7.23
2017-11-21T01:48:13.347Z,8.30
2017-11-21T01:50:41.425Z,7.00
2017-11-21T01:53:09.607Z,7.13
2017-11-21T01:55:37.684Z,7.20
2017-11-21T01:58:05.779Z,8.70
2017-11-21T02:00:33.854Z,9.17
2017-11-21T02:03:04.862Z,7.80
2017-11-21T02:05:33.024Z,8.13
2017-11-21T02:08:01.167Z,9.07
2017-11-21T02:10:29.252Z,9.70
2017-11-21T02:12:57.321Z,8.23
2017-11-21T02:15:25.413Z,7.80
2017-11-21T02:17:53.781Z,9.37
2017-11-21T02:20:21.869Z,8.80
2017-11-21T02:22:50.700Z,9.50
2017-11-21T02:25:18.781Z,9.47
2017-11-21T02:27:46.850Z,9.53
2017-11-21T02:30:14.935Z,9.20
2017-11-21T02:32:43.027Z,9.43
2017-11-21T02:35:12.606Z,9.13
2017-11-21T02:37:40.687Z,8.30
2017-11-21T02:40:08.871Z,8.10
2017-11-21T02:42:37.136Z,7.67
2017-11-21T02:45:05.213Z,8.57
2017-11-21T02:47:33.299Z,9.17
2017-11-21T02:50:01.432Z,9.30
2017-11-21T02:52:29.513Z,9.60
2017-11-21T02:54:57.695Z,9.70
2017-11-21T02:57:25.775Z,8.27
2017-11-21T02:59:53.839Z,8.43
2017-11-21T03:02:21.911Z,8.93
2017-11-21T03:04:49.986Z,9.60
2017-11-21T03:07:18.100Z,10.33
2017-11-21T03:09:46.262Z,10.33
2017-11-21T03:12:14.332Z,11.47
2017-11-21T03:14:42.429Z,11.47
2017-11-21T03:17:10.504Z,10.77
2017-11-21T03:19:38.598Z,11.77
2017-11-21T03:22:18.559Z,11.30
2017-11-21T03:38:14.756Z,11.83
2017-11-21T03:40:42.832Z,11.07
2017-11-21T03:43:10.917Z,11.97
2017-11-21T03:45:38.987Z,11.57
2017-11-21T03:48:07.073Z,10.77
2017-11-21T03:50:35.182Z,10.53
2017-11-21T03:53:03.237Z,11.27
2017-11-21T03:55:31.325Z,10.97
2017-11-21T03:57:59.525Z,10.67
2017-11-21T04:00:27.608Z,11.17
2017-11-21T04:02:56.457Z,12.53
2017-11-21T04:05:24.531Z,10.60
2017-11-21T04:07:52.621Z,11.83
2017-11-21T04:10:20.708Z,10.87
2017-11-21T04:12:49.553Z,10.77
2017-11-21T04:15:17.645Z,11.83
2017-11-21T04:17:45.724Z,11.50
2017-11-21T04:20:13.820Z,11.00
2017-11-21T04:22:41.905Z,11.47
2017-11-21T04:25:10.034Z,11.83
2017-11-21T04:27:38.205Z,13.13
2017-11-21T04:30:07.807Z,13.87
2017-11-21T04:32:35.892Z,12.90
2017-11-21T04:35:03.979Z,11.90
2017-11-21T04:37:32.834Z,12.40
2017-11-21T04:40:00.913Z,11.20
2017-11-21T04:42:28.993Z,11.60
2017-11-21T04:44:57.849Z,13.23
2017-11-21T04:47:25.934Z,11.67
2017-11-21T04:49:54.009Z,10.20
2017-11-21T04:52:22.080Z,11.10
2017-11-21T04:54:50.177Z,10.67
2017-11-21T04:57:18.244Z,10.23
2017-11-21T04:59:47.097Z,9.83
2017-11-21T05:02:15.184Z,9.70
2017-11-21T05:04:43.263Z,9.47
2017-11-21T05:07:11.342Z,10.87
2017-11-21T05:09:40.186Z,9.20
2017-11-21T05:12:08.259Z,9.73
2017-11-21T05:14:36.335Z,10.70
2017-11-21T05:17:04.532Z,10.10
2017-11-21T05:19:32.610Z,10.20
2017-11-21T05:22:01.462Z,9.67
2017-11-21T05:24:29.541Z,11.87
2017-11-21T05:26:57.612Z,10.50
2017-11-21T05:29:25.698Z,11.33
2017-11-21T05:31:53.804Z,11.37
2017-11-21T05:34:21.886Z,12.33
2017-11-21T05:36:49.956Z,10.47
2017-11-21T05:39:18.039Z,10.13
2017-11-21T05:41:46.123Z,11.83
2017-11-21T05:44:14.230Z,11.90
2017-11-21T05:46:42.310Z,11.37
2017-11-21T05:49:11.166Z,11.57
2017-11-21T05:51:39.246Z,12.67
2017-11-21T05:54:07.340Z,12.17
2017-11-21T05:56:36.183Z,13.30
2017-11-21T05:59:04.401Z,12.27
2017-11-21T06:01:33.377Z,12.00
2017-11-21T06:04:01.595Z,13.67
2017-11-21T06:06:29.928Z,12.23
2017-11-21T06:08:58.015Z,13.70
2017-11-21T06:11:26.856Z,11.07
2017-11-21T06:13:55.051Z,10.60
2017-11-21T06:16:23.130Z,11.00
2017-11-21T06:18:51.208Z,12.40
2017-11-21T06:21:20.076Z,11.17
2017-11-21T06:23:48.142Z,10.27
2017-11-21T06:26:16.230Z,11.90
2017-11-21T06:28:44.344Z,12.50
2017-11-21T06:31:12.449Z,12.40
2017-11-21T06:33:40.536Z,11.13
2017-11-21T06:36:08.624Z,12.17
2017-11-21T06:38:36.704Z,14.87
2017-11-21T06:41:04.853Z,11.40
2017-11-21T06:43:32.941Z,11.57
2017-11-21T06:46:01.787Z,12.43
2017-11-21T06:48:29.879Z,11.67
2017-11-21T06:50:58.052Z,12.37
2017-11-21T06:53:26.140Z,11.67
2017-11-21T06:55:55.020Z,13.60
2017-11-21T06:58:23.114Z,17.63
2017-11-21T07:00:51.191Z,9.40
2017-11-21T07:03:19.280Z,9.20
2017-11-21T07:05:47.331Z,9.10
2017-11-21T07:08:15.416Z,8.33
2017-11-21T07:10:43.510Z,7.77
2017-11-21T07:13:11.582Z,9.47
2017-11-21T07:15:39.652Z,7.10
2017-11-21T07:18:07.787Z,7.10
2017-11-21T07:20:35.878Z,7.40
2017-11-21T07:23:03.968Z,6.63
2017-11-21T07:25:32.068Z,6.13
2017-11-21T07:28:00.160Z,6.00
2017-11-21T07:30:28.253Z,5.43
2017-11-21T07:32:56.316Z,6.97
2017-11-21T07:35:24.396Z,5.00
2017-11-21T07:37:52.468Z,7.20
2017-11-21T07:40:20.553Z,5.20
2017-11-21T07:42:48.626Z,9.40
2017-11-21T07:45:16.701Z,6.97
2017-11-21T07:47:44.781Z,8.00
2017-11-21T07:50:12.864Z,7.43
2017-11-21T07:52:40.936Z,8.13
2017-11-21T07:55:09.010Z,8.27
2017-11-21T07:57:37.090Z,8.20
2017-11-21T08:00:05.945Z,8.30
2017-11-21T08:02:34.016Z,8.30
2017-11-21T08:05:02.099Z,9.23
2017-11-21T08:07:30.177Z,7.80
2017-11-21T08:09:59.024Z,9.10
2017-11-21T08:12:27.118Z,7.77
2017-11-21T08:14:55.184Z,6.90
2017-11-21T08:17:23.272Z,6.40
2017-11-21T08:19:51.335Z,5.70
2017-11-21T08:22:19.417Z,6.23
2017-11-21T08:24:48.260Z,6.23
2017-11-21T08:27:16.340Z,6.10
2017-11-21T08:29:44.429Z,5.57
2017-11-21T08:32:12.501Z,6.70
2017-11-21T08:34:40.579Z,6.83
2017-11-21T08:37:08.665Z,6.33
2017-11-21T08:39:36.733Z,7.10
2017-11-21T08:42:05.564Z,6.53
2017-11-21T08:44:33.642Z,7.03
2017-11-21T08:47:01.713Z,6.30
2017-11-21T08:49:29.795Z,6.63
2017-11-21T08:51:57.866Z,5.97
2017-11-21T08:54:25.956Z,7.00
2017-11-21T08:56:54.017Z,5.70
2017-11-21T08:59:22.112Z,5.83
2017-11-21T09:01:50.957Z,5.80
2017-11-21T09:04:19.038Z,5.93
2017-11-21T09:06:47.117Z,5.87
2017-11-21T09:09:15.200Z,6.27
2017-11-21T09:11:43.280Z,5.27
2017-11-21T09:14:12.120Z,6.07
2017-11-21T09:16:40.204Z,5.03
2017-11-21T09:19:08.282Z,4.80
2017-11-21T09:21:36.352Z,5.20
2017-11-21T09:24:05.271Z,4.80
2017-11-21T09:26:34.112Z,5.00
2017-11-21T09:29:02.193Z,4.53
2017-11-21T09:31:30.870Z,4.20
2017-11-21T09:33:58.939Z,4.30
2017-11-21T09:36:27.045Z,4.20
2017-11-21T09:38:55.120Z,3.43
2017-11-21T09:41:23.295Z,4.30
2017-11-21T09:43:51.433Z,5.00
2017-11-21T09:46:19.671Z,4.33
2017-11-21T09:48:47.752Z,3.50
2017-11-21T09:51:15.816Z,4.43
2017-11-21T09:53:43.916Z,4.40
2017-11-21T09:56:11.984Z,4.10
2017-11-21T09:58:40.068Z,3.77
2017-11-21T10:01:08.145Z,3.97
2017-11-21T10:03:36.229Z,5.63
2017-11-21T10:06:05.064Z,4.60
2017-11-21T10:08:33.165Z,5.80
2017-11-21T10:11:01.241Z,3.87
2017-11-21T10:13:29.319Z,4.10
2017-11-21T10:15:57.392Z,3.97
2017-11-21T10:18:25.476Z,4.40
2017-11-21T10:20:54.324Z,3.40
2017-11-21T10:23:22.400Z,3.83
2017-11-21T10:25:50.495Z,3.40
2017-11-21T10:28:18.564Z,3.60
2017-11-21T10:30:46.635Z,4.13
2017-11-21T10:33:15.464Z,4.63
2017-11-21T10:35:43.550Z,3.30
2017-11-21T10:38:11.618Z,3.03
2017-11-21T10:40:39.706Z,2.70
2017-11-21T10:43:07.805Z,2.80
2017-11-21T10:45:35.864Z,2.40
2017-11-21T10:48:03.963Z,2.10
2017-11-21T10:50:32.043Z,2.47
2017-11-21T10:53:00.118Z,2.00
2017-11-21T10:55:28.213Z,1.80
2017-11-21T10:57:56.260Z,1.80
2017-11-21T11:00:24.338Z,2.23
2017-11-21T11:02:52.425Z,1.97
2017-11-21T11:05:20.498Z,1.80
2017-11-21T11:07:48.585Z,1.70
2017-11-21T11:10:16.669Z,1.63
2017-11-21T11:12:44.744Z,2.33
2017-11-21T11:15:13.592Z,1.70
2017-11-21T11:17:41.714Z,1.40
2017-11-21T11:20:09.864Z,1.30
2017-11-21T11:22:37.936Z,1.63
2017-11-21T11:25:06.020Z,1.63
2017-11-21T11:27:34.871Z,1.43
2017-11-21T11:30:02.947Z,1.23
2017-11-21T11:32:31.128Z,1.60
2017-11-21T11:35:00.712Z,2.03
2017-11-21T11:37:28.793Z,2.13
2017-11-21T11:39:57.006Z,1.70
2017-11-21T11:42:25.074Z,2.27
2017-11-21T11:44:53.943Z,1.60
2017-11-21T11:47:22.010Z,1.40
2017-11-21T11:49:50.090Z,1.60
2017-11-21T11:52:18.160Z,1.53
2017-11-21T11:54:46.232Z,1.50
2017-11-21T11:57:15.082Z,1.40
2017-11-21T11:59:43.147Z,1.20
2017-11-21T12:02:11.237Z,1.20
2017-11-21T12:04:39.305Z,1.37
2017-11-21T12:07:07.389Z,1.60
2017-11-21T12:09:35.464Z,1.40
2017-11-21T12:12:03.544Z,1.60
2017-11-21T12:14:32.395Z,1.93
2017-11-21T12:17:00.481Z,1.50
2017-11-21T12:19:28.554Z,7.53
2017-11-21T12:21:56.640Z,1.50
2017-11-21T12:24:24.709Z,1.40
2017-11-21T12:26:53.559Z,1.90
2017-11-21T12:29:21.637Z,2.00
2017-11-21T12:31:49.718Z,2.53
2017-11-21T12:34:17.804Z,1.90
2017-11-21T12:36:45.880Z,1.97
2017-11-21T12:39:14.729Z,1.60
2017-11-21T12:41:42.818Z,1.50
2017-11-21T12:44:10.890Z,1.57
2017-11-21T12:46:38.966Z,1.90
2017-11-21T12:49:07.041Z,1.70
2017-11-21T12:51:35.130Z,1.77
2017-11-21T12:54:03.964Z,1.70
2017-11-21T12:56:32.047Z,1.63
2017-11-21T12:59:00.119Z,1.93
2017-11-21T13:01:28.205Z,1.97
2017-11-21T13:03:56.289Z,1.83
2017-11-21T13:06:25.132Z,1.83
2017-11-21T13:08:53.212Z,2.00
2017-11-21T13:11:21.288Z,2.07
2017-11-21T13:13:49.372Z,2.13
2017-11-21T13:16:17.449Z,1.83
2017-11-21T13:18:45.533Z,2.00
2017-11-21T13:21:14.385Z,2.20
2017-11-21T13:23:42.478Z,1.80
2017-11-21T13:26:10.553Z,2.17
2017-11-21T13:28:38.632Z,2.20
2017-11-21T13:31:07.472Z,3.03
2017-11-21T13:33:35.546Z,2.30
2017-11-21T13:36:03.614Z,1.93
2017-11-21T13:38:31.698Z,2.07
2017-11-21T13:40:59.768Z,2.47
2017-11-21T13:43:27.849Z,2.60
2017-11-21T13:45:55.933Z,1.80
2017-11-21T13:48:24.037Z,1.90
2017-11-21T13:50:52.111Z,1.73
2017-11-21T13:53:20.176Z,1.33
2017-11-21T13:55:48.263Z,1.40
2017-11-21T13:58:16.345Z,1.67
2017-11-21T14:00:44.415Z,1.47
2017-11-21T14:03:12.493Z,2.00
2017-11-21T14:05:40.569Z,1.50
2017-11-21T14:08:08.648Z,1.70
2017-11-21T14:10:36.724Z,1.50
2017-11-21T14:13:04.797Z,1.70
2017-11-21T14:15:32.882Z,2.27
2017-11-21T14:18:01.805Z,1.50
2017-11-21T14:20:29.880Z,1.60
2017-11-21T14:22:57.953Z,1.80
2017-11-21T14:25:26.040Z,2.37
2017-11-21T14:27:54.114Z,1.90
2017-11-21T14:30:22.193Z,3.00
2017-11-21T14:32:50.267Z,2.93
2017-11-21T14:35:18.353Z,4.83
2017-11-21T14:37:46.443Z,5.20
2017-11-21T14:40:14.693Z,4.17
2017-11-21T14:42:44.300Z,3.00
2017-11-21T14:45:12.360Z,3.87
2017-11-21T14:47:40.432Z,2.50
2017-11-21T14:50:10.025Z,2.93
2017-11-21T14:52:38.105Z,2.80
2017-11-21T14:55:06.209Z,2.50
2017-11-21T14:57:34.286Z,2.77
2017-11-21T15:00:02.533Z,3.80
2017-11-21T15:02:30.645Z,5.30
2017-11-21T15:04:58.711Z,3.60
2017-11-21T15:07:26.799Z,4.60
2017-11-21T15:09:55.085Z,4.20
2017-11-21T15:12:23.165Z,4.10
2017-11-21T15:14:52.280Z,2.87
2017-11-21T15:17:20.395Z,3.57
2017-11-21T15:19:48.458Z,3.40
2017-11-21T15:22:16.564Z,3.40
2017-11-21T15:24:44.692Z,3.73
2017-11-21T15:27:12.772Z,3.87
2017-11-21T15:29:40.860Z,4.10
2017-11-21T15:32:08.940Z,4.03
2017-11-21T15:34:37.009Z,4.30
2017-11-21T15:37:05.086Z,5.00
2017-11-21T15:39:33.158Z,5.60
2017-11-21T15:42:01.244Z,4.97
2017-11-21T15:44:29.311Z,5.67
2017-11-21T15:46:57.421Z,6.07
2017-11-21T15:49:26.332Z,6.47
2017-11-21T15:51:54.532Z,7.00
2017-11-21T15:54:22.610Z,8.97
2017-11-21T15:56:50.994Z,7.70
2017-11-21T15:59:19.082Z,8.80
2017-11-21T16:01:47.256Z,9.53
2017-11-21T16:04:16.217Z,9.57
2017-11-21T16:06:44.317Z,8.50
2017-11-21T16:09:13.210Z,7.90
2017-11-21T16:11:41.472Z,8.03
2017-11-21T16:14:09.552Z,8.63
2017-11-21T16:16:37.633Z,8.53
2017-11-21T16:19:06.490Z,10.43
2017-11-21T16:21:34.561Z,9.97
2017-11-21T16:24:02.648Z,11.90
2017-11-21T16:26:30.733Z,11.43
2017-11-21T16:28:59.587Z,10.17
2017-11-21T16:31:27.660Z,8.70
2017-11-21T16:33:55.747Z,10.97
2017-11-21T16:36:23.822Z,10.47
2017-11-21T16:38:51.928Z,11.27
2017-11-21T16:41:20.002Z,10.93
2017-11-21T16:43:48.077Z,9.80
2017-11-21T16:46:16.164Z,10.10
2017-11-21T16:48:44.240Z,10.00
2017-11-21T16:51:12.324Z,9.03
2017-11-21T16:53:40.389Z,8.60
2017-11-21T16:56:08.471Z,8.17
2017-11-21T16:58:36.545Z,8.10
2017-11-21T17:01:04.629Z,11.67
2017-11-21T17:03:32.701Z,9.00
2017-11-21T17:06:00.782Z,10.90
2017-11-21T17:08:29.618Z,9.40
2017-11-21T17:10:57.724Z,10.23
2017-11-21T17:13:25.800Z,9.10
2017-11-21T17:15:54.656Z,8.60
2017-11-21T17:18:22.735Z,8.27
2017-11-21T17:20:50.815Z,8.53
2017-11-21T17:23:18.897Z,9.20
2017-11-21T17:25:46.976Z,10.20
2017-11-21T17:28:16.032Z,8.07
2017-11-21T17:30:44.326Z,10.30
2017-11-21T17:33:12.397Z,8.30
2017-11-21T17:35:40.498Z,8.50
2017-11-21T17:38:09.336Z,9.40
2017-11-21T17:40:37.425Z,8.80
2017-11-21T17:43:05.512Z,11.30
2017-11-21T17:45:34.360Z,11.87
2017-11-21T17:48:02.440Z,11.23
2017-11-21T17:50:30.541Z,11.40
2017-11-21T17:52:59.402Z,13.40
2017-11-21T17:55:27.496Z,13.27
2017-11-21T17:57:55.581Z,13.73
2017-11-21T18:00:24.432Z,12.50
2017-11-21T18:02:52.524Z,12.17
2017-11-21T18:05:21.369Z,10.80
2017-11-21T18:07:49.451Z,9.80
2017-11-21T18:10:17.515Z,10.63
2017-11-21T18:12:45.605Z,11.00
2017-11-21T18:15:13.688Z,10.70
2017-11-21T18:17:41.767Z,12.70
2017-11-21T18:20:10.616Z,10.60
2017-11-21T18:22:38.712Z,11.03
2017-11-21T18:25:06.788Z,15.10
2017-11-21T18:27:34.879Z,13.10
2017-11-21T18:30:03.715Z,16.10
2017-11-21T18:32:31.805Z,25.00
2017-11-21T18:34:59.889Z,20.20
2017-11-21T18:37:27.985Z,19.23
2017-11-21T18:39:56.830Z,12.63
2017-11-21T18:42:24.915Z,23.80
2017-11-21T18:44:53.006Z,15.03
2017-11-21T18:47:21.856Z,13.90
2017-11-21T18:49:49.939Z,17.30
2017-11-21T18:52:18.153Z,11.13
2017-11-21T18:54:46.233Z,10.70
2017-11-21T18:57:14.314Z,13.03
2017-11-21T18:59:42.405Z,14.87
2017-11-21T19:02:10.485Z,12.80
2017-11-21T19:04:38.567Z,13.47
2017-11-21T19:07:06.650Z,14.27
2017-11-21T19:09:35.492Z,20.53
2017-11-21T19:12:03.579Z,13.90
2017-11-21T19:14:31.667Z,16.07
2017-11-21T19:16:59.752Z,18.47
2017-11-21T19:19:28.602Z,19.23
2017-11-21T19:21:57.448Z,18.40
2017-11-21T19:24:25.535Z,18.70
2017-11-21T19:26:53.622Z,17.50
2017-11-21T19:29:21.710Z,20.60
2017-11-21T19:31:49.791Z,18.63
2017-11-21T19:34:17.867Z,20.10
2017-11-21T19:36:45.968Z,19.17
2017-11-21T19:39:14.056Z,23.10
2017-11-21T19:41:42.139Z,20.77
2017-11-21T19:44:10.216Z,19.53
2017-11-21T19:46:38.306Z,23.00
2017-11-21T19:49:06.389Z,21.70
2017-11-21T19:51:34.476Z,24.10
2017-11-21T19:54:03.330Z,25.33
2017-11-21T19:56:31.412Z,24.70
2017-11-21T19:58:59.500Z,23.87
2017-11-21T20:01:28.357Z,28.40
2017-11-21T20:03:56.443Z,26.67
2017-11-21T20:06:24.524Z,25.30
2017-11-21T20:08:53.384Z,24.60
2017-11-21T20:11:21.457Z,23.00
2017-11-21T20:13:49.536Z,24.00
2017-11-21T20:16:17.615Z,27.13
2017-11-21T20:18:45.700Z,32.70
2017-11-21T20:21:14.545Z,30.50
2017-11-21T20:23:42.628Z,31.33
2017-11-21T20:26:10.719Z,34.00
2017-11-21T20:28:38.807Z,33.40
2017-11-21T20:31:06.893Z,31.07
2017-11-21T20:33:34.976Z,38.23
2017-11-21T20:36:03.066Z,34.43
2017-11-21T20:38:31.140Z,35.90
2017-11-21T20:40:59.287Z,38.80
2017-11-21T20:43:27.351Z,35.50
2017-11-21T20:45:55.438Z,36.03
2017-11-21T20:48:23.529Z,31.90
2017-11-21T20:50:51.599Z,31.77
2017-11-21T20:53:19.684Z,34.20
2017-11-21T20:55:47.757Z,32.30
2017-11-21T20:58:15.890Z,35.50
2017-11-21T21:00:43.969Z,34.33
2017-11-21T21:03:12.059Z,34.87
2017-11-21T21:05:40.145Z,34.60
2017-11-21T21:08:08.266Z,32.10
2017-11-21T21:10:36.340Z,35.13
2017-11-21T21:13:04.437Z,30.60
2017-11-21T21:15:32.517Z,33.37
2017-11-21T21:18:00.651Z,30.87
2017-11-21T21:20:28.715Z,31.60
2017-11-21T21:22:56.846Z,31.00
2017-11-21T21:25:24.920Z,28.27
2017-11-21T21:28:00.587Z,28.60
2017-11-21T21:30:28.675Z,31.47
2017-11-21T21:32:56.760Z,29.50
2017-11-21T21:35:24.857Z,28.27
2017-11-21T21:37:52.987Z,26.70
2017-11-21T21:40:21.048Z,25.43
2017-11-21T21:42:49.139Z,27.93
2017-11-21T21:45:17.217Z,25.50
2017-11-21T21:47:45.304Z,21.97
2017-11-21T21:50:13.398Z,23.40
2017-11-21T21:52:42.244Z,22.97
2017-11-21T21:55:10.325Z,23.23
2017-11-21T21:57:38.404Z,27.83
2017-11-21T22:00:06.487Z,24.03
2017-11-21T22:02:34.577Z,23.17
2017-11-21T22:05:03.412Z,22.03
2017-11-21T22:07:31.501Z,22.43
2017-11-21T22:09:59.587Z,22.93
2017-11-21T22:12:27.668Z,22.13
2017-11-21T22:14:56.520Z,23.50
2017-11-21T22:17:24.599Z,29.03
2017-11-21T22:19:52.695Z,31.50
2017-11-21T22:22:21.540Z,26.17
2017-11-21T22:24:49.627Z,25.73
2017-11-21T22:27:17.712Z,24.93
2017-11-21T22:29:45.797Z,26.70
2017-11-21T22:32:14.650Z,26.87
2017-11-21T22:34:42.728Z,26.20
2017-11-21T22:37:10.818Z,25.97
2017-11-21T22:39:38.896Z,25.00
2017-11-21T22:42:07.764Z,22.37
2017-11-21T22:44:35.831Z,23.83
2017-11-21T22:47:03.927Z,23.90
2017-11-21T22:49:32.767Z,21.40
2017-11-21T22:52:00.856Z,28.40
2017-11-21T22:54:28.946Z,19.17
2017-11-21T22:56:57.062Z,21.30
2017-11-21T22:59:25.160Z,21.30
2017-11-21T23:01:55.544Z,22.53
2017-11-21T23:04:23.684Z,21.90
2017-11-21T23:06:51.843Z,19.73
2017-11-21T23:09:20.980Z,26.83
2017-11-21T23:11:49.079Z,23.27
2017-11-21T23:14:17.213Z,25.37
2017-11-21T23:16:45.311Z,21.60
2017-11-21T23:19:13.401Z,20.70
2017-11-21T23:21:41.488Z,27.27
2017-11-21T23:24:09.663Z,25.30
2017-11-21T23:26:37.753Z,25.00
2017-11-21T23:29:05.897Z,22.23
2017-11-21T23:31:33.985Z,22.10
2017-11-21T23:34:02.973Z,19.80
2017-11-21T23:36:31.061Z,20.93
2017-11-21T23:38:59.905Z,21.07
2017-11-21T23:41:28.016Z,23.90
2017-11-21T23:43:56.872Z,23.67
2017-11-21T23:46:24.952Z,22.10
2017-11-21T23:48:53.232Z,26.10
2017-11-21T23:51:21.313Z,24.13
2017-11-21T23:53:50.167Z,21.07
2017-11-21T23:56:18.254Z,26.73
2017-11-21T23:58:46.410Z,24.50
